sensor_id;sensor_type;location;lat;lon;timestamp;temperature;humidity
67358;HTU21D;54240;51.096;5.878;2022-11-23T00:02:24;9.05;118.99
67358;HTU21D;54240;51.096;5.878;2022-11-23T00:04:50;9.19;118.99
67358;HTU21D;54240;51.096;5.878;2022-11-23T00:07:16;9.32;118.99
67358;HTU21D;54240;51.096;5.878;2022-11-23T00:09:42;9.29;118.99
67358;HTU21D;54240;51.096;5.878;2022-11-23T00:12:08;9.30;118.99
67358;HTU21D;54240;51.096;5.878;2022-11-23T00:14:34;9.44;118.99
67358;HTU21D;54240;51.096;5.878;2022-11-23T00:17:00;9.44;118.99
67358;HTU21D;54240;51.096;5.878;2022-11-23T00:19:25;9.46;118.99
67358;HTU21D;54240;51.096;5.878;2022-11-23T00:21:51;9.49;118.99
67358;HTU21D;54240;51.096;5.878;2022-11-23T00:24:17;9.50;118.99
67358;HTU21D;54240;51.096;5.878;2022-11-23T00:26:43;9.61;118.99
67358;HTU21D;54240;51.096;5.878;2022-11-23T00:29:08;9.55;118.99
67358;HTU21D;54240;51.096;5.878;2022-11-23T00:31:34;9.54;118.99
67358;HTU21D;54240;51.096;5.878;2022-11-23T00:34:01;9.39;118.99
67358;HTU21D;54240;51.096;5.878;2022-11-23T00:36:27;9.40;118.99
67358;HTU21D;54240;51.096;5.878;2022-11-23T00:38:53;9.36;118.99
67358;HTU21D;54240;51.096;5.878;2022-11-23T00:41:23;9.27;118.99
67358;HTU21D;54240;51.096;5.878;2022-11-23T00:43:49;9.53;118.99
67358;HTU21D;54240;51.096;5.878;2022-11-23T00:46:18;9.39;118.99
67358;HTU21D;54240;51.096;5.878;2022-11-23T00:48:47;9.36;118.99
67358;HTU21D;54240;51.096;5.878;2022-11-23T00:51:16;9.25;118.99
67358;HTU21D;54240;51.096;5.878;2022-11-23T00:53:42;9.20;118.99
67358;HTU21D;54240;51.096;5.878;2022-11-23T00:56:10;9.35;118.99
67358;HTU21D;54240;51.096;5.878;2022-11-23T00:58:37;9.41;118.99
67358;HTU21D;54240;51.096;5.878;2022-11-23T01:01:07;9.33;118.99
67358;HTU21D;54240;51.096;5.878;2022-11-23T01:03:34;9.49;118.99
67358;HTU21D;54240;51.096;5.878;2022-11-23T01:06:02;9.55;118.99
67358;HTU21D;54240;51.096;5.878;2022-11-23T01:08:28;9.44;118.99
67358;HTU21D;54240;51.096;5.878;2022-11-23T01:10:58;9.41;118.99
67358;HTU21D;54240;51.096;5.878;2022-11-23T01:13:24;9.34;118.99
67358;HTU21D;54240;51.096;5.878;2022-11-23T01:15:50;9.39;118.99
67358;HTU21D;54240;51.096;5.878;2022-11-23T01:18:18;9.41;118.99
67358;HTU21D;54240;51.096;5.878;2022-11-23T01:20:44;9.44;118.99
67358;HTU21D;54240;51.096;5.878;2022-11-23T01:23:09;9.35;118.99
67358;HTU21D;54240;51.096;5.878;2022-11-23T01:25:36;9.56;118.99
67358;HTU21D;54240;51.096;5.878;2022-11-23T01:28:03;9.47;118.99
67358;HTU21D;54240;51.096;5.878;2022-11-23T01:30:29;9.50;118.99
67358;HTU21D;54240;51.096;5.878;2022-11-23T01:32:55;9.37;118.99
67358;HTU21D;54240;51.096;5.878;2022-11-23T01:35:21;9.44;118.99
67358;HTU21D;54240;51.096;5.878;2022-11-23T01:37:46;9.50;118.99
67358;HTU21D;54240;51.096;5.878;2022-11-23T01:40:14;9.49;118.99
67358;HTU21D;54240;51.096;5.878;2022-11-23T01:43:00;9.48;118.99
67358;HTU21D;54240;51.096;5.878;2022-11-23T01:45:35;9.44;118.99
67358;HTU21D;54240;51.096;5.878;2022-11-23T01:48:12;9.52;118.99
67358;HTU21D;54240;51.096;5.878;2022-11-23T01:50:41;9.40;118.99
67358;HTU21D;54240;51.096;5.878;2022-11-23T01:53:07;9.51;118.99
67358;HTU21D;54240;51.096;5.878;2022-11-23T01:55:33;9.53;118.99
67358;HTU21D;54240;51.096;5.878;2022-11-23T01:58:01;9.57;118.99
67358;HTU21D;54240;51.096;5.878;2022-11-23T02:00:27;9.54;118.99
67358;HTU21D;54240;51.096;5.878;2022-11-23T02:02:57;9.60;118.99
67358;HTU21D;54240;51.096;5.878;2022-11-23T02:05:34;9.64;118.99
67358;HTU21D;54240;51.096;5.878;2022-11-23T02:08:02;9.51;118.99
67358;HTU21D;54240;51.096;5.878;2022-11-23T02:10:30;9.62;118.99
67358;HTU21D;54240;51.096;5.878;2022-11-23T02:13:01;9.52;118.99
67358;HTU21D;54240;51.096;5.878;2022-11-23T02:15:28;9.60;118.99
67358;HTU21D;54240;51.096;5.878;2022-11-23T02:17:54;9.53;118.99
67358;HTU21D;54240;51.096;5.878;2022-11-23T02:20:20;9.61;118.99
67358;HTU21D;54240;51.096;5.878;2022-11-23T02:23:04;9.49;118.99
67358;HTU21D;54240;51.096;5.878;2022-11-23T02:28:17;9.62;118.99
67358;HTU21D;54240;51.096;5.878;2022-11-23T02:30:50;9.62;118.99
67358;HTU21D;54240;51.096;5.878;2022-11-23T02:33:16;9.48;118.99
67358;HTU21D;54240;51.096;5.878;2022-11-23T02:35:50;9.54;118.99
67358;HTU21D;54240;51.096;5.878;2022-11-23T02:38:17;9.57;118.99
67358;HTU21D;54240;51.096;5.878;2022-11-23T02:40:44;9.64;118.99
67358;HTU21D;54240;51.096;5.878;2022-11-23T02:43:10;9.54;118.99
67358;HTU21D;54240;51.096;5.878;2022-11-23T02:45:50;9.55;118.99
67358;HTU21D;54240;51.096;5.878;2022-11-23T02:48:18;9.52;118.99
67358;HTU21D;54240;51.096;5.878;2022-11-23T02:50:44;9.61;118.99
67358;HTU21D;54240;51.096;5.878;2022-11-23T02:53:11;9.57;118.99
67358;HTU21D;54240;51.096;5.878;2022-11-23T02:55:37;9.72;118.99
67358;HTU21D;54240;51.096;5.878;2022-11-23T02:58:05;9.59;118.99
67358;HTU21D;54240;51.096;5.878;2022-11-23T03:00:32;9.67;118.99
67358;HTU21D;54240;51.096;5.878;2022-11-23T03:03:00;9.60;118.99
67358;HTU21D;54240;51.096;5.878;2022-11-23T03:05:27;9.71;118.99
67358;HTU21D;54240;51.096;5.878;2022-11-23T03:07:53;9.71;118.99
67358;HTU21D;54240;51.096;5.878;2022-11-23T03:10:19;9.46;118.99
67358;HTU21D;54240;51.096;5.878;2022-11-23T03:12:48;9.51;118.99
67358;HTU21D;54240;51.096;5.878;2022-11-23T03:15:14;9.49;118.99
67358;HTU21D;54240;51.096;5.878;2022-11-23T03:17:40;9.52;118.99
67358;HTU21D;54240;51.096;5.878;2022-11-23T03:20:10;9.63;118.99
67358;HTU21D;54240;51.096;5.878;2022-11-23T03:22:39;9.57;118.99
67358;HTU21D;54240;51.096;5.878;2022-11-23T03:25:07;9.62;118.99
67358;HTU21D;54240;51.096;5.878;2022-11-23T03:27:33;9.53;118.99
67358;HTU21D;54240;51.096;5.878;2022-11-23T03:30:00;9.62;118.99
67358;HTU21D;54240;51.096;5.878;2022-11-23T03:32:28;9.44;118.99
67358;HTU21D;54240;51.096;5.878;2022-11-23T03:34:54;9.49;118.99
67358;HTU21D;54240;51.096;5.878;2022-11-23T03:37:21;9.57;118.99
67358;HTU21D;54240;51.096;5.878;2022-11-23T03:39:47;9.55;118.99
67358;HTU21D;54240;51.096;5.878;2022-11-23T03:42:39;9.57;118.99
67358;HTU21D;54240;51.096;5.878;2022-11-23T03:45:06;9.48;118.99
67358;HTU21D;54240;51.096;5.878;2022-11-23T03:47:32;9.53;118.99
67358;HTU21D;54240;51.096;5.878;2022-11-23T03:49:58;9.57;118.99
67358;HTU21D;54240;51.096;5.878;2022-11-23T03:52:24;9.65;118.99
67358;HTU21D;54240;51.096;5.878;2022-11-23T03:54:50;9.56;118.99
67358;HTU21D;54240;51.096;5.878;2022-11-23T03:57:16;9.66;118.99
67358;HTU21D;54240;51.096;5.878;2022-11-23T03:59:42;9.72;118.99
67358;HTU21D;54240;51.096;5.878;2022-11-23T04:02:08;9.66;118.99
67358;HTU21D;54240;51.096;5.878;2022-11-23T04:04:41;9.63;118.99
67358;HTU21D;54240;51.096;5.878;2022-11-23T04:07:26;9.67;118.99
67358;HTU21D;54240;51.096;5.878;2022-11-23T04:09:54;9.59;118.99
67358;HTU21D;54240;51.096;5.878;2022-11-23T04:12:30;9.56;118.99
67358;HTU21D;54240;51.096;5.878;2022-11-23T04:14:55;9.60;118.99
67358;HTU21D;54240;51.096;5.878;2022-11-23T04:17:21;9.52;118.99
67358;HTU21D;54240;51.096;5.878;2022-11-23T04:19:47;9.57;118.99
67358;HTU21D;54240;51.096;5.878;2022-11-23T04:22:14;9.61;118.99
67358;HTU21D;54240;51.096;5.878;2022-11-23T04:24:41;9.61;118.99
67358;HTU21D;54240;51.096;5.878;2022-11-23T04:27:07;9.53;118.99
67358;HTU21D;54240;51.096;5.878;2022-11-23T04:29:33;9.38;118.99
67358;HTU21D;54240;51.096;5.878;2022-11-23T04:32:00;9.56;118.99
67358;HTU21D;54240;51.096;5.878;2022-11-23T04:34:26;9.63;118.99
67358;HTU21D;54240;51.096;5.878;2022-11-23T04:36:52;9.63;118.99
67358;HTU21D;54240;51.096;5.878;2022-11-23T04:39:24;9.62;118.99
67358;HTU21D;54240;51.096;5.878;2022-11-23T04:42:10;9.51;118.99
67358;HTU21D;54240;51.096;5.878;2022-11-23T04:44:37;9.41;118.99
67358;HTU21D;54240;51.096;5.878;2022-11-23T04:47:04;9.57;118.99
67358;HTU21D;54240;51.096;5.878;2022-11-23T04:49:32;9.57;118.99
67358;HTU21D;54240;51.096;5.878;2022-11-23T04:51:58;9.50;118.99
67358;HTU21D;54240;51.096;5.878;2022-11-23T04:54:31;9.41;118.99
67358;HTU21D;54240;51.096;5.878;2022-11-23T04:57:00;9.46;118.99
67358;HTU21D;54240;51.096;5.878;2022-11-23T04:59:26;9.39;118.99
67358;HTU21D;54240;51.096;5.878;2022-11-23T05:01:52;9.46;118.99
67358;HTU21D;54240;51.096;5.878;2022-11-23T05:04:44;9.46;118.99
67358;HTU21D;54240;51.096;5.878;2022-11-23T05:07:11;9.50;118.99
67358;HTU21D;54240;51.096;5.878;2022-11-23T05:09:39;9.41;118.99
67358;HTU21D;54240;51.096;5.878;2022-11-23T05:12:12;9.39;118.99
67358;HTU21D;54240;51.096;5.878;2022-11-23T05:14:39;9.29;118.99
67358;HTU21D;54240;51.096;5.878;2022-11-23T05:17:06;9.29;118.99
67358;HTU21D;54240;51.096;5.878;2022-11-23T05:19:33;9.36;118.99
67358;HTU21D;54240;51.096;5.878;2022-11-23T05:21:59;9.34;118.99
67358;HTU21D;54240;51.096;5.878;2022-11-23T05:24:25;9.39;118.99
67358;HTU21D;54240;51.096;5.878;2022-11-23T05:27:03;9.29;118.99
67358;HTU21D;54240;51.096;5.878;2022-11-23T05:29:29;9.30;118.99
67358;HTU21D;54240;51.096;5.878;2022-11-23T05:31:55;9.33;118.99
67358;HTU21D;54240;51.096;5.878;2022-11-23T05:34:21;9.31;118.99
67358;HTU21D;54240;51.096;5.878;2022-11-23T05:36:47;9.39;118.99
67358;HTU21D;54240;51.096;5.878;2022-11-23T05:39:14;9.40;118.99
67358;HTU21D;54240;51.096;5.878;2022-11-23T05:41:40;9.51;118.99
67358;HTU21D;54240;51.096;5.878;2022-11-23T05:44:18;9.61;118.99
67358;HTU21D;54240;51.096;5.878;2022-11-23T05:46:44;9.61;118.99
67358;HTU21D;54240;51.096;5.878;2022-11-23T05:49:10;9.61;118.99
67358;HTU21D;54240;51.096;5.878;2022-11-23T05:51:38;9.49;118.99
67358;HTU21D;54240;51.096;5.878;2022-11-23T05:54:04;9.56;118.99
67358;HTU21D;54240;51.096;5.878;2022-11-23T05:56:37;9.54;118.99
67358;HTU21D;54240;51.096;5.878;2022-11-23T05:59:13;9.57;118.99
67358;HTU21D;54240;51.096;5.878;2022-11-23T06:01:42;9.62;118.99
67358;HTU21D;54240;51.096;5.878;2022-11-23T06:04:11;9.60;118.99
67358;HTU21D;54240;51.096;5.878;2022-11-23T06:06:42;9.59;118.99
67358;HTU21D;54240;51.096;5.878;2022-11-23T06:09:09;9.60;118.99
67358;HTU21D;54240;51.096;5.878;2022-11-23T06:11:38;9.66;118.99
67358;HTU21D;54240;51.096;5.878;2022-11-23T06:14:09;9.67;118.99
67358;HTU21D;54240;51.096;5.878;2022-11-23T06:16:35;9.67;118.99
67358;HTU21D;54240;51.096;5.878;2022-11-23T06:19:13;9.57;118.99
67358;HTU21D;54240;51.096;5.878;2022-11-23T06:21:40;9.65;118.99
67358;HTU21D;54240;51.096;5.878;2022-11-23T06:24:07;9.63;118.99
67358;HTU21D;54240;51.096;5.878;2022-11-23T06:26:34;9.53;118.99
67358;HTU21D;54240;51.096;5.878;2022-11-23T06:29:00;9.56;118.99
67358;HTU21D;54240;51.096;5.878;2022-11-23T06:31:27;9.54;118.99
67358;HTU21D;54240;51.096;5.878;2022-11-23T06:33:53;9.48;118.99
67358;HTU21D;54240;51.096;5.878;2022-11-23T06:36:19;9.42;118.99
67358;HTU21D;54240;51.096;5.878;2022-11-23T06:38:48;9.36;118.99
67358;HTU21D;54240;51.096;5.878;2022-11-23T06:41:19;9.26;118.99
67358;HTU21D;54240;51.096;5.878;2022-11-23T06:43:46;9.12;118.99
67358;HTU21D;54240;51.096;5.878;2022-11-23T06:46:18;9.00;118.99
67358;HTU21D;54240;51.096;5.878;2022-11-23T06:48:46;9.00;118.99
67358;HTU21D;54240;51.096;5.878;2022-11-23T06:51:14;8.89;118.99
67358;HTU21D;54240;51.096;5.878;2022-11-23T06:53:40;8.93;118.99
67358;HTU21D;54240;51.096;5.878;2022-11-23T06:56:08;8.89;118.99
67358;HTU21D;54240;51.096;5.878;2022-11-23T06:58:35;8.86;118.99
67358;HTU21D;54240;51.096;5.878;2022-11-23T07:01:06;8.74;118.99
67358;HTU21D;54240;51.096;5.878;2022-11-23T07:03:42;8.71;118.99
67358;HTU21D;54240;51.096;5.878;2022-11-23T07:06:19;8.63;118.99
67358;HTU21D;54240;51.096;5.878;2022-11-23T07:08:45;8.58;118.99
67358;HTU21D;54240;51.096;5.878;2022-11-23T07:11:22;8.55;118.99
67358;HTU21D;54240;51.096;5.878;2022-11-23T07:13:48;8.53;118.99
67358;HTU21D;54240;51.096;5.878;2022-11-23T07:16:14;8.46;118.99
67358;HTU21D;54240;51.096;5.878;2022-11-23T07:18:39;8.42;118.99
67358;HTU21D;54240;51.096;5.878;2022-11-23T07:21:06;8.43;118.99
67358;HTU21D;54240;51.096;5.878;2022-11-23T07:23:32;8.42;118.99
67358;HTU21D;54240;51.096;5.878;2022-11-23T07:26:02;8.30;118.99
67358;HTU21D;54240;51.096;5.878;2022-11-23T07:28:28;8.39;118.99
67358;HTU21D;54240;51.096;5.878;2022-11-23T07:30:54;8.44;118.99
67358;HTU21D;54240;51.096;5.878;2022-11-23T07:33:20;8.51;118.99
67358;HTU21D;54240;51.096;5.878;2022-11-23T07:35:47;8.51;118.99
67358;HTU21D;54240;51.096;5.878;2022-11-23T07:38:14;8.58;118.99
67358;HTU21D;54240;51.096;5.878;2022-11-23T07:40:41;8.55;118.99
67358;HTU21D;54240;51.096;5.878;2022-11-23T07:43:15;8.52;118.99
67358;HTU21D;54240;51.096;5.878;2022-11-23T07:45:46;8.76;118.99
67358;HTU21D;54240;51.096;5.878;2022-11-23T07:48:15;8.77;118.99
67358;HTU21D;54240;51.096;5.878;2022-11-23T07:50:41;8.80;118.99
67358;HTU21D;54240;51.096;5.878;2022-11-23T07:53:07;8.91;118.99
67358;HTU21D;54240;51.096;5.878;2022-11-23T07:55:33;8.73;118.99
67358;HTU21D;54240;51.096;5.878;2022-11-23T07:57:59;8.82;118.99
67358;HTU21D;54240;51.096;5.878;2022-11-23T08:00:27;8.92;118.99
67358;HTU21D;54240;51.096;5.878;2022-11-23T08:02:53;8.98;118.99
67358;HTU21D;54240;51.096;5.878;2022-11-23T08:05:19;8.96;118.99
67358;HTU21D;54240;51.096;5.878;2022-11-23T08:07:45;8.97;118.99
67358;HTU21D;54240;51.096;5.878;2022-11-23T08:10:11;8.95;118.99
67358;HTU21D;54240;51.096;5.878;2022-11-23T08:12:38;9.08;118.99
67358;HTU21D;54240;51.096;5.878;2022-11-23T08:15:05;9.26;118.99
67358;HTU21D;54240;51.096;5.878;2022-11-23T08:17:31;9.25;118.99
67358;HTU21D;54240;51.096;5.878;2022-11-23T08:19:57;9.38;118.99
67358;HTU21D;54240;51.096;5.878;2022-11-23T08:22:22;9.47;118.99
67358;HTU21D;54240;51.096;5.878;2022-11-23T08:24:48;9.70;118.99
67358;HTU21D;54240;51.096;5.878;2022-11-23T08:27:15;9.77;118.99
67358;HTU21D;54240;51.096;5.878;2022-11-23T08:29:41;9.67;118.99
67358;HTU21D;54240;51.096;5.878;2022-11-23T08:32:07;9.82;118.99
67358;HTU21D;54240;51.096;5.878;2022-11-23T08:34:32;10.14;118.99
67358;HTU21D;54240;51.096;5.878;2022-11-23T08:36:58;10.28;118.99
67358;HTU21D;54240;51.096;5.878;2022-11-23T08:39:24;10.45;118.99
67358;HTU21D;54240;51.096;5.878;2022-11-23T08:41:50;10.68;118.99
67358;HTU21D;54240;51.096;5.878;2022-11-23T08:44:15;10.71;118.99
67358;HTU21D;54240;51.096;5.878;2022-11-23T08:46:41;10.73;117.89
67358;HTU21D;54240;51.096;5.878;2022-11-23T08:49:07;10.78;118.99
67358;HTU21D;54240;51.096;5.878;2022-11-23T08:51:33;10.72;85.13
67358;HTU21D;54240;51.096;5.878;2022-11-23T08:53:59;10.68;89.71
67358;HTU21D;54240;51.096;5.878;2022-11-23T08:56:25;10.68;92.62
67358;HTU21D;54240;51.096;5.878;2022-11-23T08:58:50;10.96;78.06
67358;HTU21D;54240;51.096;5.878;2022-11-23T09:01:17;11.07;81.21
67358;HTU21D;54240;51.096;5.878;2022-11-23T09:03:44;11.15;17.36
67358;HTU21D;54240;51.096;5.878;2022-11-23T09:06:10;11.08;44.10
67358;HTU21D;54240;51.096;5.878;2022-11-23T09:08:37;11.25;75.49
67358;HTU21D;54240;51.096;5.878;2022-11-23T09:11:08;11.67;65.36
67358;HTU21D;54240;51.096;5.878;2022-11-23T09:13:35;11.56;40.39
67358;HTU21D;54240;51.096;5.878;2022-11-23T09:16:02;11.67;-6.00
67358;HTU21D;54240;51.096;5.878;2022-11-23T09:18:30;11.51;-6.00
67358;HTU21D;54240;51.096;5.878;2022-11-23T09:20:56;11.45;-6.00
67358;HTU21D;54240;51.096;5.878;2022-11-23T09:23:23;11.59;-6.00
67358;HTU21D;54240;51.096;5.878;2022-11-23T09:25:48;11.68;-6.00
67358;HTU21D;54240;51.096;5.878;2022-11-23T09:28:16;11.70;-6.00
67358;HTU21D;54240;51.096;5.878;2022-11-23T09:30:46;12.02;-6.00
67358;HTU21D;54240;51.096;5.878;2022-11-23T09:33:12;12.15;-6.00
67358;HTU21D;54240;51.096;5.878;2022-11-23T09:35:39;12.23;-6.00
67358;HTU21D;54240;51.096;5.878;2022-11-23T09:38:05;12.32;-6.00
67358;HTU21D;54240;51.096;5.878;2022-11-23T09:40:37;12.73;-6.00
67358;HTU21D;54240;51.096;5.878;2022-11-23T09:45:54;12.40;-6.00
67358;HTU21D;54240;51.096;5.878;2022-11-23T09:48:52;12.44;-6.00
67358;HTU21D;54240;51.096;5.878;2022-11-23T09:51:17;12.45;-6.00
67358;HTU21D;54240;51.096;5.878;2022-11-23T09:53:49;12.62;-6.00
67358;HTU21D;54240;51.096;5.878;2022-11-23T09:56:28;12.91;-6.00
67358;HTU21D;54240;51.096;5.878;2022-11-23T09:58:58;13.11;-6.00
67358;HTU21D;54240;51.096;5.878;2022-11-23T10:01:25;13.36;-6.00
67358;HTU21D;54240;51.096;5.878;2022-11-23T10:03:56;13.39;-6.00
67358;HTU21D;54240;51.096;5.878;2022-11-23T10:06:28;13.83;-6.00
67358;HTU21D;54240;51.096;5.878;2022-11-23T10:17:55;13.75;-6.00
67358;HTU21D;54240;51.096;5.878;2022-11-23T10:23:00;13.82;-6.00
67358;HTU21D;54240;51.096;5.878;2022-11-23T10:25:41;14.09;-6.00
67358;HTU21D;54240;51.096;5.878;2022-11-23T10:28:12;14.29;-6.00
67358;HTU21D;54240;51.096;5.878;2022-11-23T10:30:39;14.63;-6.00
67358;HTU21D;54240;51.096;5.878;2022-11-23T10:33:31;14.56;-6.00
67358;HTU21D;54240;51.096;5.878;2022-11-23T10:35:57;15.11;-6.00
67358;HTU21D;54240;51.096;5.878;2022-11-23T10:38:27;15.29;-6.00
67358;HTU21D;54240;51.096;5.878;2022-11-23T10:41:08;15.40;-6.00
67358;HTU21D;54240;51.096;5.878;2022-11-23T10:49:17;15.18;-6.00
67358;HTU21D;54240;51.096;5.878;2022-11-23T10:51:59;15.08;-6.00
67358;HTU21D;54240;51.096;5.878;2022-11-23T10:54:46;14.37;-6.00
67358;HTU21D;54240;51.096;5.878;2022-11-23T11:02:39;14.68;-6.00
67358;HTU21D;54240;51.096;5.878;2022-11-23T11:05:31;15.14;-6.00
67358;HTU21D;54240;51.096;5.878;2022-11-23T11:08:00;15.40;-6.00
67358;HTU21D;54240;51.096;5.878;2022-11-23T11:10:43;16.10;-6.00
67358;HTU21D;54240;51.096;5.878;2022-11-23T11:18:33;15.82;-6.00
67358;HTU21D;54240;51.096;5.878;2022-11-23T11:21:44;15.75;-6.00
67358;HTU21D;54240;51.096;5.878;2022-11-23T11:23:54;15.58;-6.00
67358;HTU21D;54240;51.096;5.878;2022-11-23T11:26:25;15.67;-6.00
67358;HTU21D;54240;51.096;5.878;2022-11-23T11:28:54;15.54;-6.00
67358;HTU21D;54240;51.096;5.878;2022-11-23T11:43:27;16.06;-6.00
67358;HTU21D;54240;51.096;5.878;2022-11-23T11:45:57;15.25;-6.00
67358;HTU21D;54240;51.096;5.878;2022-11-23T11:48:33;15.75;-6.00
67358;HTU21D;54240;51.096;5.878;2022-11-23T11:51:23;15.75;-6.00
67358;HTU21D;54240;51.096;5.878;2022-11-23T11:53:58;15.53;-6.00
67358;HTU21D;54240;51.096;5.878;2022-11-23T11:59:12;15.96;-6.00
67358;HTU21D;54240;51.096;5.878;2022-11-23T12:01:53;16.27;-6.00
67358;HTU21D;54240;51.096;5.878;2022-11-23T12:04:26;16.62;-6.00
67358;HTU21D;54240;51.096;5.878;2022-11-23T12:07:07;16.45;-6.00
67358;HTU21D;54240;51.096;5.878;2022-11-23T12:09:41;16.84;-6.00
67358;HTU21D;54240;51.096;5.878;2022-11-23T12:12:17;16.39;-6.00
67358;HTU21D;54240;51.096;5.878;2022-11-23T12:14:44;16.93;-6.00
67358;HTU21D;54240;51.096;5.878;2022-11-23T12:20:19;15.34;-6.00
67358;HTU21D;54240;51.096;5.878;2022-11-23T12:25:36;15.02;-6.00
67358;HTU21D;54240;51.096;5.878;2022-11-23T12:28:13;14.98;-6.00
67358;HTU21D;54240;51.096;5.878;2022-11-23T12:31:23;14.40;-6.00
67358;HTU21D;54240;51.096;5.878;2022-11-23T12:37:07;13.76;-6.00
67358;HTU21D;54240;51.096;5.878;2022-11-23T12:42:24;13.23;-6.00
67358;HTU21D;54240;51.096;5.878;2022-11-23T12:56:10;12.63;-6.00
67358;HTU21D;54240;51.096;5.878;2022-11-23T12:58:39;12.67;-6.00
67358;HTU21D;54240;51.096;5.878;2022-11-23T13:01:30;12.56;-6.00
67358;HTU21D;54240;51.096;5.878;2022-11-23T13:04:25;12.46;-6.00
67358;HTU21D;54240;51.096;5.878;2022-11-23T13:13:04;12.31;-6.00
67358;HTU21D;54240;51.096;5.878;2022-11-23T13:18:48;11.99;-6.00
67358;HTU21D;54240;51.096;5.878;2022-11-23T13:21:35;11.93;-6.00
67358;HTU21D;54240;51.096;5.878;2022-11-23T13:24:02;12.02;-6.00
67358;HTU21D;54240;51.096;5.878;2022-11-23T13:26:28;12.05;-6.00
67358;HTU21D;54240;51.096;5.878;2022-11-23T13:28:57;11.92;-6.00
67358;HTU21D;54240;51.096;5.878;2022-11-23T13:31:29;11.91;-6.00
67358;HTU21D;54240;51.096;5.878;2022-11-23T13:34:01;11.91;-6.00
67358;HTU21D;54240;51.096;5.878;2022-11-23T13:38:58;12.02;-6.00
67358;HTU21D;54240;51.096;5.878;2022-11-23T13:50:06;11.53;8.96
67358;HTU21D;54240;51.096;5.878;2022-11-23T13:55:19;11.74;-6.00
67358;HTU21D;54240;51.096;5.878;2022-11-23T14:00:58;11.82;-6.00
67358;HTU21D;54240;51.096;5.878;2022-11-23T14:11:30;11.27;87.65
67358;HTU21D;54240;51.096;5.878;2022-11-23T14:14:03;11.25;113.15
67358;HTU21D;54240;51.096;5.878;2022-11-23T14:17:19;11.19;118.99
67358;HTU21D;54240;51.096;5.878;2022-11-23T14:33:36;10.00;118.99
67358;HTU21D;54240;51.096;5.878;2022-11-23T14:41:41;9.48;118.99
67358;HTU21D;54240;51.096;5.878;2022-11-23T14:44:13;9.42;118.99
67358;HTU21D;54240;51.096;5.878;2022-11-23T14:47:02;9.41;118.99
67358;HTU21D;54240;51.096;5.878;2022-11-23T14:49:28;9.36;118.99
67358;HTU21D;54240;51.096;5.878;2022-11-23T14:51:55;9.30;118.99
67358;HTU21D;54240;51.096;5.878;2022-11-23T14:54:22;9.19;118.99
67358;HTU21D;54240;51.096;5.878;2022-11-23T14:56:52;9.12;118.99
67358;HTU21D;54240;51.096;5.878;2022-11-23T14:59:26;9.02;118.99
67358;HTU21D;54240;51.096;5.878;2022-11-23T15:02:00;8.92;118.99
67358;HTU21D;54240;51.096;5.878;2022-11-23T15:04:32;8.81;118.99
67358;HTU21D;54240;51.096;5.878;2022-11-23T15:07:23;8.73;118.99
67358;HTU21D;54240;51.096;5.878;2022-11-23T15:13:22;8.62;118.99
67358;HTU21D;54240;51.096;5.878;2022-11-23T15:15:51;8.55;118.99
67358;HTU21D;54240;51.096;5.878;2022-11-23T15:18:34;8.44;118.99
67358;HTU21D;54240;51.096;5.878;2022-11-23T15:21:23;8.43;118.99
67358;HTU21D;54240;51.096;5.878;2022-11-23T15:23:52;8.44;118.99
67358;HTU21D;54240;51.096;5.878;2022-11-23T15:26:30;8.44;118.99
67358;HTU21D;54240;51.096;5.878;2022-11-23T15:28:56;8.45;118.99
67358;HTU21D;54240;51.096;5.878;2022-11-23T15:31:33;8.56;118.99
67358;HTU21D;54240;51.096;5.878;2022-11-23T15:34:08;8.41;118.99
67358;HTU21D;54240;51.096;5.878;2022-11-23T15:36:37;8.36;118.99
67358;HTU21D;54240;51.096;5.878;2022-11-23T15:39:05;8.22;118.99
67358;HTU21D;54240;51.096;5.878;2022-11-23T15:41:38;8.30;118.99
67358;HTU21D;54240;51.096;5.878;2022-11-23T15:44:25;8.24;118.99
67358;HTU21D;54240;51.096;5.878;2022-11-23T15:46:57;8.19;118.99
67358;HTU21D;54240;51.096;5.878;2022-11-23T15:49:24;8.18;118.99
67358;HTU21D;54240;51.096;5.878;2022-11-23T15:51:51;8.17;118.99
67358;HTU21D;54240;51.096;5.878;2022-11-23T15:54:23;8.21;118.99
67358;HTU21D;54240;51.096;5.878;2022-11-23T15:56:53;8.32;118.99
67358;HTU21D;54240;51.096;5.878;2022-11-23T15:59:53;8.33;118.99
67358;HTU21D;54240;51.096;5.878;2022-11-23T16:02:23;8.34;118.99
67358;HTU21D;54240;51.096;5.878;2022-11-23T16:05:12;8.32;118.99
67358;HTU21D;54240;51.096;5.878;2022-11-23T16:10:51;8.35;118.99
67358;HTU21D;54240;51.096;5.878;2022-11-23T16:13:34;8.34;118.99
67358;HTU21D;54240;51.096;5.878;2022-11-23T16:16:11;8.36;118.99
67358;HTU21D;54240;51.096;5.878;2022-11-23T16:18:43;8.32;118.99
67358;HTU21D;54240;51.096;5.878;2022-11-23T16:21:15;8.30;118.99
67358;HTU21D;54240;51.096;5.878;2022-11-23T16:26:12;8.24;118.99
67358;HTU21D;54240;51.096;5.878;2022-11-23T16:28:54;8.24;118.99
67358;HTU21D;54240;51.096;5.878;2022-11-23T16:31:38;8.21;118.99
67358;HTU21D;54240;51.096;5.878;2022-11-23T16:34:17;8.26;118.99
67358;HTU21D;54240;51.096;5.878;2022-11-23T16:36:43;8.27;118.99
67358;HTU21D;54240;51.096;5.878;2022-11-23T16:39:09;8.21;118.99
67358;HTU21D;54240;51.096;5.878;2022-11-23T16:41:36;8.29;118.99
67358;HTU21D;54240;51.096;5.878;2022-11-23T16:44:02;8.30;118.99
67358;HTU21D;54240;51.096;5.878;2022-11-23T16:46:28;8.29;118.99
67358;HTU21D;54240;51.096;5.878;2022-11-23T16:48:54;8.24;118.99
67358;HTU21D;54240;51.096;5.878;2022-11-23T16:51:22;8.18;118.99
67358;HTU21D;54240;51.096;5.878;2022-11-23T16:53:47;8.24;118.99
67358;HTU21D;54240;51.096;5.878;2022-11-23T16:56:21;8.19;118.99
67358;HTU21D;54240;51.096;5.878;2022-11-23T16:58:47;8.19;118.99
67358;HTU21D;54240;51.096;5.878;2022-11-23T17:01:24;8.17;118.99
67358;HTU21D;54240;51.096;5.878;2022-11-23T17:03:51;8.17;118.99
67358;HTU21D;54240;51.096;5.878;2022-11-23T17:06:18;8.08;118.99
67358;HTU21D;54240;51.096;5.878;2022-11-23T17:08:48;8.14;118.99
67358;HTU21D;54240;51.096;5.878;2022-11-23T17:11:19;8.09;118.99
67358;HTU21D;54240;51.096;5.878;2022-11-23T17:13:48;8.18;118.99
67358;HTU21D;54240;51.096;5.878;2022-11-23T17:16:17;8.18;118.99
67358;HTU21D;54240;51.096;5.878;2022-11-23T17:18:44;8.16;118.99
67358;HTU21D;54240;51.096;5.878;2022-11-23T17:21:10;8.06;118.99
67358;HTU21D;54240;51.096;5.878;2022-11-23T17:23:37;8.08;118.99
67358;HTU21D;54240;51.096;5.878;2022-11-23T17:28:55;8.15;118.99
67358;HTU21D;54240;51.096;5.878;2022-11-23T17:31:21;8.17;118.99
67358;HTU21D;54240;51.096;5.878;2022-11-23T17:33:48;8.17;118.99
67358;HTU21D;54240;51.096;5.878;2022-11-23T17:36:14;8.16;118.99
67358;HTU21D;54240;51.096;5.878;2022-11-23T17:38:39;8.16;118.99
67358;HTU21D;54240;51.096;5.878;2022-11-23T17:41:09;8.11;118.99
67358;HTU21D;54240;51.096;5.878;2022-11-23T17:43:35;8.03;118.99
67358;HTU21D;54240;51.096;5.878;2022-11-23T17:46:04;8.03;118.99
67358;HTU21D;54240;51.096;5.878;2022-11-23T17:48:30;8.03;118.99
67358;HTU21D;54240;51.096;5.878;2022-11-23T17:50:58;8.01;118.99